Time;durP1;ratioP1;P1;durP2;ratioP2;P2;SDS_P1;SDS_P2;PMS_P1;PMS_P2;Temp;Humidity;BMP_temperature;BMP_pressure;BME280_temperature;BME280_humidity;BME280_pressure;Samples;Min_cycle;Max_cycle;Signal;HPM_P1;HPM_P2
2022/01/23 00:00:36;;;;;;;16.00;10.93;;;;;;;5.73;99.01;103194.09;5070669;28;20272;-75
2022/01/23 00:03:06;;;;;;;15.83;10.63;;;;;;;5.73;98.81;103201.72;5067923;28;20753;-75
2022/01/23 00:05:38;;;;;;;14.47;11.20;;;;;;;5.72;98.91;103200.84;5069101;28;20255;-74
2022/01/23 00:08:04;;;;;;;16.23;10.23;;;;;;;5.75;98.66;103210.38;5068910;28;20258;-74
2022/01/23 00:10:29;;;;;;;14.53;10.57;;;;;;;5.75;98.91;103208.69;5070098;28;20181;-74
2022/01/23 00:13:07;;;;;;;13.77;10.67;;;;;;;5.76;98.69;103207.03;5069075;28;20646;-74
2022/01/23 00:18:17;;;;;;;14.93;10.20;;;;;;;5.75;98.78;103210.38;5068594;28;20200;-75
2022/01/23 00:20:42;;;;;;;16.03;10.30;;;;;;;5.76;99.24;103217.22;5070102;28;20254;-73
2022/01/23 00:23:15;;;;;;;13.67;9.97;;;;;;;5.76;99.40;103210.44;5068703;28;20242;-74
2022/01/23 00:31:09;;;;;;;13.90;9.67;;;;;;;5.75;98.89;103212.91;5068744;28;20767;-74
2022/01/23 00:33:35;;;;;;;12.90;9.07;;;;;;;5.77;99.17;103213.91;5069957;28;20181;-74
2022/01/23 00:36:00;;;;;;;13.67;9.00;;;;;;;5.75;99.67;103218.00;5068526;28;20196;-74
2022/01/23 00:38:26;;;;;;;13.07;9.03;;;;;;;5.75;99.46;103210.38;5068403;28;20682;-73
2022/01/23 00:40:51;;;;;;;13.90;8.80;;;;;;;5.74;99.87;103206.03;5051690;28;20272;-74
2022/01/23 00:43:26;;;;;;;13.87;8.70;;;;;;;5.73;99.56;103205.16;5051726;28;20177;-72
2022/01/23 00:45:57;;;;;;;14.17;9.40;;;;;;;5.73;99.06;103212.78;5068544;28;20615;-74
2022/01/23 00:48:28;;;;;;;11.97;8.73;;;;;;;5.73;99.49;103210.25;5068194;28;20220;-74
2022/01/23 00:50:53;;;;;;;13.50;8.50;;;;;;;5.75;99.18;103210.38;5068565;28;20182;-73
2022/01/23 00:53:19;;;;;;;12.97;8.37;;;;;;;5.75;99.45;103211.22;5068325;28;20189;-74
2022/01/23 00:55:46;;;;;;;12.40;8.37;;;;;;;5.74;99.22;103211.09;5070026;28;20253;-73
2022/01/23 00:58:13;;;;;;;15.83;8.37;;;;;;;5.76;99.86;103209.59;5069420;28;20205;-74
2022/01/23 01:00:40;;;;;;;12.73;8.50;;;;;;;5.76;99.33;103207.91;5068256;28;20188;-74
2022/01/23 01:03:05;;;;;;;10.07;7.47;;;;;;;5.75;99.95;103223.94;5068198;28;20206;-74
2022/01/23 01:05:31;;;;;;;12.37;8.63;;;;;;;5.76;100.00;103225.69;5068337;28;20181;-74
2022/01/23 01:07:59;;;;;;;13.93;8.30;;;;;;;5.78;99.78;103226.72;5068018;28;20201;-74
2022/01/23 01:10:35;;;;;;;12.20;8.20;;;;;;;5.77;100.00;103221.53;5069642;28;20555;-74
2022/01/23 01:13:02;;;;;;;10.20;7.37;;;;;;;5.79;99.56;103230.13;5068269;28;20638;-73
2022/01/23 01:15:38;;;;;;;9.57;7.23;;;;;;;5.78;99.82;103226.72;5068401;28;20212;-74
2022/01/23 01:31:51;;;;;;;12.93;7.63;;;;;;;5.80;99.49;103229.41;5073882;28;20638;-73
2022/01/23 01:34:24;;;;;;;9.80;7.27;;;;;;;5.79;100.00;103233.56;5072056;28;20201;-73
2022/01/23 01:36:52;;;;;;;11.53;7.40;;;;;;;5.81;100.00;103241.34;5073307;28;20182;-74
2022/01/23 01:39:27;;;;;;;13.23;7.97;;;;;;;5.81;100.00;103242.22;5071616;28;20283;-73
2022/01/23 01:41:54;;;;;;;15.33;8.90;;;;;;;5.82;99.69;103243.13;5071747;28;20221;-73
2022/01/23 01:44:22;;;;;;;16.97;8.43;;;;;;;5.83;99.95;103243.25;5071772;28;20215;-75
2022/01/23 01:47:07;;;;;;;15.03;8.63;;;;;;;5.84;99.68;103247.56;5072894;28;20242;-74
2022/01/23 01:49:36;;;;;;;14.00;8.83;;;;;;;5.85;100.00;103236.59;5071423;28;20775;-74
2022/01/23 01:52:04;;;;;;;11.80;8.27;;;;;;;5.86;100.00;103237.50;5071559;28;20184;-74
2022/01/23 01:54:32;;;;;;;14.30;8.30;;;;;;;5.86;100.00;103229.88;5054941;28;20714;-73
2022/01/23 01:57:09;;;;;;;15.77;8.70;;;;;;;5.87;100.00;103236.72;5071535;28;20180;-73
2022/01/23 02:00:11;;;;;;;13.43;8.13;;;;;;;5.87;100.00;103232.56;5071261;28;20185;-75
2022/01/23 02:08:25;;;;;;;12.73;8.27;;;;;;;5.90;100.00;103227.69;5070896;28;20207;-73
2022/01/23 02:10:55;;;;;;;12.53;8.43;;;;;;;5.90;100.00;103222.59;5071307;28;20239;-73
2022/01/23 02:13:29;;;;;;;12.83;8.23;;;;;;;5.92;100.00;103225.25;5071279;28;20276;-74
2022/01/23 02:51:52;;;;;;;13.83;8.03;;;;;;;5.92;100.00;103213.44;5070597;28;20180;-73
2022/01/23 02:56:48;;;;;;;17.43;9.23;;;;;;;5.94;100.00;103211.88;5070460;28;20745;-74
2022/01/23 02:59:28;;;;;;;16.23;9.40;;;;;;;5.95;100.00;103210.25;5070106;28;20581;-74
2022/01/23 03:05:02;;;;;;;17.97;10.37;;;;;;;5.96;100.00;103212.00;5049330;28;20186;-74
2022/01/23 03:10:09;;;;;;;18.30;10.57;;;;;;;5.96;100.00;103219.63;5049981;28;20671;-74
2022/01/23 03:15:21;;;;;;;16.40;10.30;;;;;;;5.96;100.00;103222.19;5049924;28;20585;-75
2022/01/23 03:26:14;;;;;;;20.13;11.20;;;;;;;5.97;100.00;103223.94;5049759;28;20205;-75
2022/01/23 03:31:31;;;;;;;18.90;11.17;;;;;;;5.97;100.00;103229.03;5049703;28;20201;-74
2022/01/23 03:33:57;;;;;;;19.60;12.17;;;;;;;5.98;100.00;103228.28;5049712;28;20297;-74
2022/01/23 03:36:23;;;;;;;23.53;12.77;;;;;;;5.97;100.00;103223.94;5050967;28;20269;-75
2022/01/23 03:38:48;;;;;;;23.10;12.67;;;;;;;5.97;100.00;103221.41;5049367;28;20871;-73
2022/01/23 03:41:15;;;;;;;22.03;12.57;;;;;;;5.97;100.00;103216.31;5049429;28;20221;-75
2022/01/23 03:43:41;;;;;;;22.83;13.67;;;;;;;5.98;100.00;103220.66;5050677;28;20185;-74
2022/01/23 03:51:21;;;;;;;33.70;14.80;;;;;;;5.98;100.00;103218.13;5069411;28;20267;-76
2022/01/23 03:53:48;;;;;;;25.00;14.60;;;;;;;5.99;100.00;103225.84;5069361;28;20181;-74
2022/01/23 03:56:15;;;;;;;26.70;14.60;;;;;;;6.00;100.00;103214.91;5069484;28;20643;-76
2022/01/23 03:58:41;;;;;;;25.53;14.23;;;;;;;6.00;100.00;103222.53;5069002;28;20205;-75
2022/01/23 04:01:11;;;;;;;27.83;13.87;;;;;;;6.01;100.00;103228.50;5069071;28;20184;-75
2022/01/23 04:03:39;;;;;;;27.17;14.10;;;;;;;6.00;100.00;103222.53;5069134;28;20650;-74
2022/01/23 04:06:06;;;;;;;21.83;12.80;;;;;;;6.01;100.00;103225.94;5068956;28;20192;-75
2022/01/23 04:08:32;;;;;;;26.00;14.00;;;;;;;6.04;100.00;103233.81;5068724;28;20232;-74
2022/01/23 04:10:58;;;;;;;22.77;12.90;;;;;;;6.02;100.00;103226.06;5068961;28;20275;-75
2022/01/23 04:13:34;;;;;;;24.73;12.33;;;;;;;6.03;100.00;103230.38;5052078;28;20189;-74
2022/01/23 04:16:30;;;;;;;21.90;13.03;;;;;;;6.01;100.00;103224.31;5070152;28;20279;-74
2022/01/23 04:19:11;;;;;;;20.80;13.23;;;;;;;6.03;100.00;103234.59;5068284;28;20264;-74
2022/01/23 04:46:15;;;;;;;20.43;11.53;;;;;;;6.07;100.00;103256.94;5069740;28;20169;-75
2022/01/23 04:59:32;;;;;;;17.43;10.97;;;;;;;6.07;100.00;103256.94;5068182;28;20680;-74
2022/01/23 04:59:34;;;;;;;20.23;11.83;;;;;;;6.06;100.00;103252.63;5068396;28;20238;-73
2022/01/23 05:00:35;;;;;;;17.30;10.40;;;;;;;6.06;100.00;103262.78;4968056;28;20192;-73
2022/01/23 05:05:58;;;;;;;18.23;10.80;;;;;;;6.09;100.00;103271.56;5035907;28;20288;-74
2022/01/23 05:08:39;;;;;;;17.37;10.13;;;;;;;6.08;100.00;103267.22;5053541;28;20258;-75
2022/01/23 05:11:23;;;;;;;18.93;10.40;;;;;;;6.10;100.00;103267.34;5069000;28;20662;-77
2022/01/23 05:14:02;;;;;;;19.50;10.87;;;;;;;6.10;100.00;103267.34;5048165;28;20213;-74
2022/01/23 05:16:30;;;;;;;16.77;10.07;;;;;;;6.10;100.00;103265.69;5048102;28;20671;-74
2022/01/23 05:18:55;;;;;;;19.80;10.53;;;;;;;6.10;100.00;103270.78;5049096;28;20214;-74
2022/01/23 05:24:00;;;;;;;17.63;10.60;;;;;;;6.12;100.00;103263.28;5049405;28;20231;-74
2022/01/23 05:26:25;;;;;;;17.97;10.60;;;;;;;6.12;100.00;103261.59;5047878;28;20189;-74
2022/01/23 05:28:50;;;;;;;18.70;11.03;;;;;;;6.11;100.00;103264.91;5049079;28;20205;-74
2022/01/23 05:31:16;;;;;;;17.50;11.10;;;;;;;6.13;100.00;103268.44;5048282;28;20265;-75
2022/01/23 05:33:42;;;;;;;19.47;11.93;;;;;;;6.13;100.00;103271.00;5047828;28;20178;-73
2022/01/23 05:36:08;;;;;;;19.47;11.40;;;;;;;6.13;100.00;103271.00;5047915;28;20196;-76
2022/01/23 05:38:34;;;;;;;20.53;12.07;;;;;;;6.13;100.00;103273.53;5047560;28;20884;-74
2022/01/23 05:41:01;;;;;;;21.90;11.57;;;;;;;6.14;100.00;103271.91;5047795;28;20190;-74
2022/01/23 05:43:27;;;;;;;21.40;13.00;;;;;;;6.14;100.00;103262.63;5047780;28;20182;-73
2022/01/23 05:45:53;;;;;;;21.23;13.87;;;;;;;6.15;100.00;103278.75;5047874;28;20186;-74
2022/01/23 05:48:47;;;;;;;20.47;12.70;;;;;;;6.15;100.00;103277.09;5048803;28;20193;-74
2022/01/23 05:51:32;;;;;;;24.83;13.43;;;;;;;6.15;100.00;103282.19;5048051;28;20550;-74
2022/01/23 05:54:27;;;;;;;24.43;14.00;;;;;;;6.15;100.00;103276.19;5011502;28;20241;-74
2022/01/23 05:57:12;;;;;;;24.57;13.37;;;;;;;6.17;100.00;103285.72;5049299;28;20565;-74
2022/01/23 05:59:46;;;;;;;24.70;14.30;;;;;;;6.16;100.00;103283.06;5047468;28;20212;-73
2022/01/23 06:02:11;;;;;;;25.90;14.27;;;;;;;6.16;100.00;103278.88;5047621;28;20186;-73
2022/01/23 06:04:38;;;;;;;29.23;15.33;;;;;;;6.17;100.00;103284.84;5060751;28;20181;-73
2022/01/23 06:07:27;;;;;;;28.87;15.17;;;;;;;6.16;100.00;103289.03;5069389;28;20166;-73
2022/01/23 06:10:05;;;;;;;29.60;15.13;;;;;;;6.19;100.00;103289.28;5071190;28;20267;-74
2022/01/23 06:12:31;;;;;;;29.87;15.63;;;;;;;6.19;100.00;103291.81;5071205;28;20261;-76
2022/01/23 06:14:56;;;;;;;33.50;16.80;;;;;;;6.19;100.00;103289.28;5071327;28;20258;-74
2022/01/23 06:17:21;;;;;;;29.57;16.00;;;;;;;6.20;100.00;103288.50;5071419;28;20626;-74
2022/01/23 06:20:08;;;;;;;30.10;16.47;;;;;;;6.22;100.00;103297.13;5072353;28;20224;-74
2022/01/23 06:22:52;;;;;;;32.73;17.70;;;;;;;6.22;100.00;103297.13;5071607;28;20223;-73
2022/01/23 06:25:35;;;;;;;35.27;17.77;;;;;;;6.23;100.00;103291.28;5071234;28;20251;-74
2022/01/23 06:28:06;;;;;;;34.17;16.87;;;;;;;6.25;100.00;103294.81;5054834;28;20213;-74
2022/01/23 06:30:36;;;;;;;36.90;18.57;;;;;;;6.25;100.00;103289.75;5070930;28;20276;-75
2022/01/23 06:33:04;;;;;;;37.40;17.90;;;;;;;6.25;100.00;103296.47;5070942;28;20181;-74
2022/01/23 06:35:29;;;;;;;36.13;17.47;;;;;;;6.25;100.00;103291.38;5070788;28;20221;-73
2022/01/23 06:37:55;;;;;;;37.43;17.27;;;;;;;6.25;100.00;103293.94;5054021;28;20612;-74
2022/01/23 06:40:20;;;;;;;38.57;18.70;;;;;;;6.26;100.00;103288.09;5070640;28;20280;-75
2022/01/23 06:43:10;;;;;;;42.93;19.97;;;;;;;6.28;100.00;103301.81;5070697;28;20193;-74
2022/01/23 06:45:53;;;;;;;42.77;19.10;;;;;;;6.28;100.00;103299.25;5070624;28;20173;-74
2022/01/23 06:48:18;;;;;;;38.93;18.40;;;;;;;6.28;100.00;103310.34;5071710;28;20683;-74
2022/01/23 06:50:44;;;;;;;40.03;18.37;;;;;;;6.30;100.00;103300.25;5070848;28;20206;-73
2022/01/23 06:53:09;;;;;;;37.33;18.70;;;;;;;6.31;100.00;103305.47;5053779;28;20200;-74
2022/01/23 06:55:34;;;;;;;39.60;19.53;;;;;;;6.31;100.00;103305.47;5070212;28;20568;-73
2022/01/23 06:58:00;;;;;;;37.70;19.87;;;;;;;6.33;100.00;103303.03;5070145;28;20623;-74
2022/01/23 07:00:25;;;;;;;41.30;20.43;;;;;;;6.32;100.00;103304.72;5070448;28;20186;-73
2022/01/23 07:03:12;;;;;;;43.13;21.33;;;;;;;6.33;100.00;103311.56;5070289;28;20730;-76
2022/01/23 07:06:13;;;;;;;37.70;19.80;;;;;;;6.34;100.00;103313.34;5024717;28;20194;-74
2022/01/23 07:08:46;;;;;;;42.20;20.73;;;;;;;6.34;100.00;103318.44;5060251;28;20215;-74
2022/01/23 07:11:31;;;;;;;40.33;21.07;;;;;;;6.36;100.00;103318.53;5063944;28;20193;-74
2022/01/23 07:14:10;;;;;;;37.93;20.40;;;;;;;6.37;100.00;103327.94;5055192;28;20209;-74
2022/01/23 07:16:56;;;;;;;40.73;20.87;;;;;;;6.37;100.00;103328.84;5070984;28;20203;-73
2022/01/23 07:19:31;;;;;;;35.47;19.37;;;;;;;6.39;100.00;103332.38;5068638;28;20643;-75
2022/01/23 07:22:01;;;;;;;37.63;19.93;;;;;;;6.42;100.00;103336.81;5054075;28;20219;-74
2022/01/23 07:24:27;;;;;;;38.10;19.53;;;;;;;6.43;100.00;103338.56;5069999;28;20586;-75
2022/01/23 07:26:53;;;;;;;32.73;17.77;;;;;;;6.45;100.00;103350.66;5069933;28;20185;-73
2022/01/23 07:29:19;;;;;;;31.27;16.87;;;;;;;6.46;100.00;103357.53;5069674;28;20211;-74
2022/01/23 07:31:57;;;;;;;34.63;16.33;;;;;;;6.49;100.00;103365.38;5069888;28;20717;-74
2022/01/23 07:34:23;;;;;;;31.93;16.17;;;;;;;6.50;100.00;103358.63;5069851;28;20197;-74
2022/01/23 07:36:49;;;;;;;33.17;17.17;;;;;;;6.53;100.00;103356.31;5069951;28;20591;-74
2022/01/23 07:39:27;;;;;;;26.40;14.60;;;;;;;6.53;100.00;103359.75;5069572;28;20200;-74
2022/01/23 07:41:57;;;;;;;31.07;15.67;;;;;;;6.54;100.00;103361.53;5069669;28;20177;-74
2022/01/23 07:44:43;;;;;;;27.17;13.70;;;;;;;6.55;100.00;103365.88;5070775;28;20201;-74
2022/01/23 07:47:43;;;;;;;26.87;12.80;;;;;;;6.56;100.00;103374.38;5069687;28;20216;-74
2022/01/23 07:50:27;;;;;;;26.90;13.93;;;;;;;6.57;100.00;103378.69;5069659;28;20203;-74
2022/01/23 07:53:04;;;;;;;24.57;12.30;;;;;;;6.59;100.00;103380.56;5069356;28;20295;-74
2022/01/23 07:55:40;;;;;;;27.20;13.83;;;;;;;6.63;100.00;103389.34;5069150;28;20262;-75
2022/01/23 07:58:24;;;;;;;20.87;10.83;;;;;;;6.64;100.00;103386.03;5070899;28;20602;-73
2022/01/23 08:01:08;;;;;;;22.17;11.97;;;;;;;6.66;100.00;103394.66;5070948;28;20192;-73
2022/01/23 08:03:51;;;;;;;27.50;12.27;;;;;;;6.68;100.00;103398.22;5069510;28;20690;-74
2022/01/23 08:06:17;;;;;;;24.97;12.30;;;;;;;6.68;100.00;103396.53;5069401;28;20215;-74
2022/01/23 08:08:48;;;;;;;27.10;12.87;;;;;;;6.69;100.00;103398.34;5070593;28;20211;-74
2022/01/23 08:11:16;;;;;;;27.30;13.73;;;;;;;6.69;100.00;103402.53;5070516;28;20169;-75
2022/01/23 08:13:41;;;;;;;25.67;14.13;;;;;;;6.69;100.00;103392.34;5069546;28;20230;-74
2022/01/23 08:16:07;;;;;;;31.93;14.00;;;;;;;6.72;100.00;103390.03;5069061;28;20217;-74
2022/01/23 08:18:32;;;;;;;26.87;15.13;;;;;;;6.73;100.00;103400.31;5065223;28;20216;-73
2022/01/23 08:20:57;;;;;;;28.97;15.13;;;;;;;6.75;100.00;103392.81;5056427;28;20627;-74
2022/01/23 08:23:23;;;;;;;30.80;16.60;;;;;;;6.75;100.00;103396.25;5048807;28;20194;-74
2022/01/23 08:25:49;;;;;;;30.57;16.53;;;;;;;6.77;100.00;103409.09;5050040;28;20640;-75
2022/01/23 08:28:14;;;;;;;27.53;16.17;;;;;;;6.77;100.00;103404.88;5049698;28;20198;-73
2022/01/23 08:30:40;;;;;;;34.30;15.70;;;;;;;6.80;100.00;103405.13;5049667;28;20196;-74
2022/01/23 08:33:05;;;;;;;29.80;15.77;;;;;;;6.83;100.00;103405.34;5050234;28;20637;-75
2022/01/23 08:35:31;;;;;;;27.20;14.77;;;;;;;6.86;100.00;103409.78;5050147;28;20198;-74
2022/01/23 08:37:57;;;;;;;23.70;14.07;;;;;;;6.92;100.00;103415.34;5048251;28;20237;-74
2022/01/23 08:40:34;;;;;;;21.63;12.50;;;;;;;7.09;100.00;103412.41;5050501;28;20201;-76
2022/01/23 08:43:00;;;;;;;22.47;12.40;;;;;;;7.16;100.00;103409.53;5049999;28;20273;-75
2022/01/23 08:45:25;;;;;;;26.67;12.37;;;;;;;7.16;100.00;103418.06;5048545;28;20269;-74
2022/01/23 08:47:51;;;;;;;17.43;9.97;;;;;;;7.11;100.00;103411.75;5055218;28;20682;-73
2022/01/23 08:50:16;;;;;;;19.23;10.33;;;;;;;7.10;100.00;103414.16;5062685;28;20181;-76
2022/01/23 08:52:42;;;;;;;23.17;9.33;;;;;;;7.09;100.00;103420.91;5070020;28;20189;-73
2022/01/23 08:55:08;;;;;;;17.47;10.30;;;;;;;7.08;100.00;103423.34;5069802;28;20254;-73
2022/01/23 08:57:33;;;;;;;18.27;9.60;;;;;;;7.12;100.00;103427.88;5069550;28;20191;-73
2022/01/23 08:59:59;;;;;;;22.07;10.77;;;;;;;7.12;100.00;103435.53;5068294;28;20193;-74
2022/01/23 09:02:25;;;;;;;21.13;10.27;;;;;;;7.14;100.00;103439.09;5069617;28;20189;-73
2022/01/23 09:04:50;;;;;;;19.20;10.40;;;;;;;7.11;100.00;103436.31;5069439;28;20196;-74
2022/01/23 09:07:16;;;;;;;17.23;8.77;;;;;;;7.10;100.00;103435.41;5069429;28;20189;-74
2022/01/23 09:09:41;;;;;;;14.80;7.83;;;;;;;7.11;100.00;103438.88;5069173;28;20247;-74
2022/01/23 09:12:24;;;;;;;12.70;7.13;;;;;;;7.12;100.00;103435.53;5068371;28;20226;-74
2022/01/23 09:14:50;;;;;;;11.07;6.93;;;;;;;7.11;100.00;103437.22;5069347;28;20204;-75
2022/01/23 09:17:15;;;;;;;10.83;6.13;;;;;;;7.12;100.00;103431.34;5067925;28;20197;-75
2022/01/23 09:19:41;;;;;;;9.87;5.67;;;;;;;7.15;100.00;103439.22;5067621;28;20311;-74
2022/01/23 09:22:06;;;;;;;8.53;5.80;;;;;;;7.15;99.92;103439.22;5069326;28;20181;-73
2022/01/23 09:24:32;;;;;;;11.57;6.00;;;;;;;7.18;100.00;103446.19;5069180;28;20193;-74
2022/01/23 09:27:06;;;;;;;8.70;5.77;;;;;;;7.20;99.91;103443.00;5069346;28;20195;-73
2022/01/23 09:29:39;;;;;;;9.57;5.33;;;;;;;7.23;100.00;103445.75;5069093;28;20708;-74
2022/01/23 09:32:09;;;;;;;10.00;5.33;;;;;;;7.25;99.87;103451.88;5069544;28;20211;-73
2022/01/23 09:34:34;;;;;;;10.50;5.93;;;;;;;7.31;100.00;103448.88;5069180;28;21011;-74
2022/01/23 09:37:03;;;;;;;11.20;5.37;;;;;;;7.30;99.40;103440.34;5069329;28;20279;-73
2022/01/23 09:39:30;;;;;;;9.33;6.13;;;;;;;7.33;99.37;103443.09;5068982;28;20201;-73
2022/01/23 09:42:04;;;;;;;10.83;5.87;;;;;;;7.36;99.81;103443.34;5068776;28;20193;-74
2022/01/23 09:44:37;;;;;;;14.10;6.63;;;;;;;7.38;100.00;103441.78;5086344;28;20216;-73
2022/01/23 09:47:03;;;;;;;9.70;6.17;;;;;;;7.39;100.00;103450.31;5053045;28;20280;-74
2022/01/23 09:49:30;;;;;;;15.73;7.63;;;;;;;7.39;100.00;103455.44;5051588;28;20304;-74
2022/01/23 09:52:00;;;;;;;12.03;6.97;;;;;;;7.40;99.41;103449.53;5062135;28;20564;-72
2022/01/23 09:54:30;;;;;;;14.57;6.83;;;;;;;7.45;99.68;103450.78;5072899;28;20193;-73
2022/01/23 09:57:01;;;;;;;13.03;7.10;;;;;;;7.47;99.48;103450.09;5072865;28;20665;-74
2022/01/23 09:59:27;;;;;;;16.80;7.30;;;;;;;7.48;100.00;103453.56;5072651;28;20262;-73
2022/01/23 10:01:56;;;;;;;13.37;7.60;;;;;;;7.56;99.65;103452.47;5071547;28;20180;-73
2022/01/23 10:04:22;;;;;;;13.07;7.47;;;;;;;7.53;99.49;103462.41;5072964;28;20201;-76
2022/01/23 10:06:47;;;;;;;12.73;8.27;;;;;;;7.51;100.00;103461.44;5072914;28;20215;-75
2022/01/23 10:09:14;;;;;;;17.13;9.27;;;;;;;7.53;100.00;103462.41;5072400;28;20593;-73
2022/01/23 10:11:42;;;;;;;17.37;8.30;;;;;;;7.55;100.00;103469.41;5072601;28;20224;-74
2022/01/23 10:14:07;;;;;;;15.80;9.00;;;;;;;7.59;100.00;103476.50;5072530;28;20288;-74
2022/01/23 10:16:33;;;;;;;17.67;9.20;;;;;;;7.62;99.65;103481.84;5072454;28;20263;-74
2022/01/23 10:19:01;;;;;;;16.03;9.17;;;;;;;7.64;99.66;103477.72;5070799;28;20209;-72
2022/01/23 10:21:28;;;;;;;18.73;9.97;;;;;;;7.64;100.00;103484.50;5071029;28;20189;-73
2022/01/23 10:23:55;;;;;;;18.27;11.47;;;;;;;7.64;99.75;103479.41;5070779;28;20200;-74
2022/01/23 10:26:46;;;;;;;21.17;12.60;;;;;;;7.64;99.57;103484.50;5072346;28;20192;-74
2022/01/23 10:29:29;;;;;;;23.60;11.17;;;;;;;7.66;99.72;103477.84;5070787;28;20299;-74
2022/01/23 10:32:05;;;;;;;20.43;12.07;;;;;;;7.62;100.00;103474.19;5070886;28;20212;-73
2022/01/23 10:34:50;;;;;;;22.50;11.70;;;;;;;7.60;99.34;103478.28;5071939;28;20220;-73
2022/01/23 10:37:36;;;;;;;23.37;11.20;;;;;;;7.75;99.30;103476.88;5072079;28;20188;-72
2022/01/23 10:40:23;;;;;;;20.80;11.50;;;;;;;7.79;99.85;103473.75;5070769;28;20541;-72
2022/01/23 10:48:26;;;;;;;17.63;9.47;;;;;;;8.13;98.71;103477.97;5071670;28;20205;-74
2022/01/23 10:51:12;;;;;;;13.63;8.83;;;;;;;8.12;97.71;103473.63;5071923;28;20264;-72
2022/01/23 10:53:57;;;;;;;14.57;9.73;;;;;;;7.99;96.99;103478.63;5071759;28;20181;-74
2022/01/23 10:56:24;;;;;;;17.80;9.07;;;;;;;7.99;97.99;103478.63;5070514;28;20201;-72
2022/01/23 10:59:04;;;;;;;18.90;9.43;;;;;;;7.93;97.49;103474.75;5071482;28;20249;-75
2022/01/23 11:01:30;;;;;;;18.80;9.07;;;;;;;7.93;98.29;103472.19;5071819;28;20631;-73
2022/01/23 11:04:02;;;;;;;18.23;9.33;;;;;;;7.96;97.77;103469.84;5070394;28;20191;-74
2022/01/23 11:06:28;;;;;;;15.20;8.33;;;;;;;7.95;98.17;103471.53;5071645;28;20208;-72
2022/01/23 11:09:09;;;;;;;18.40;8.77;;;;;;;7.97;98.35;103459.75;5071383;28;20620;-72
2022/01/23 11:11:48;;;;;;;15.50;8.93;;;;;;;7.96;98.22;103460.53;5070203;28;20720;-72
2022/01/23 11:19:47;;;;;;;17.70;9.60;;;;;;;7.88;98.33;103468.44;5070977;28;20803;-71
2022/01/23 11:22:25;;;;;;;24.20;11.63;;;;;;;7.86;97.67;103469.97;5069963;28;20196;-73
2022/01/23 11:24:52;;;;;;;20.60;10.77;;;;;;;7.85;98.12;103466.56;5070969;28;20657;-72
2022/01/23 11:27:22;;;;;;;23.40;11.93;;;;;;;7.84;98.83;103467.31;5071312;28;20204;-72
2022/01/23 11:29:53;;;;;;;27.40;12.33;;;;;;;7.84;98.07;103467.31;5070854;28;20338;-72
2022/01/23 11:32:20;;;;;;;33.20;12.57;;;;;;;7.90;98.00;103464.31;5071008;28;20189;-74
2022/01/23 11:34:47;;;;;;;27.70;12.80;;;;;;;7.84;97.92;103464.75;5041983;28;20602;-72
2022/01/23 11:37:15;;;;;;;28.57;12.77;;;;;;;7.84;98.61;103459.66;5062731;28;20193;-74
2022/01/23 11:39:47;;;;;;;26.33;13.73;;;;;;;7.84;98.02;103458.78;5064698;28;20311;-73
2022/01/23 11:50:48;;;;;;;29.97;15.37;;;;;;;8.02;97.84;103452.47;5070398;28;20197;-72
2022/01/23 11:56:24;;;;;;;29.23;13.87;;;;;;;8.12;97.01;103455.78;5050383;28;20225;-73
2022/01/23 11:59:17;;;;;;;27.77;14.00;;;;;;;8.24;96.21;103456.66;5050125;28;20262;-74
2022/01/23 12:01:45;;;;;;;23.50;13.87;;;;;;;8.69;95.43;103452.22;5048696;28;20650;-73
2022/01/23 12:04:21;;;;;;;21.60;10.93;;;;;;;8.67;94.11;103448.63;5050541;28;20213;-74
2022/01/23 12:07:08;;;;;;;16.50;10.87;;;;;;;8.66;93.50;103451.13;5048735;28;20227;-72
2022/01/23 12:09:33;;;;;;;19.57;11.30;;;;;;;8.69;92.76;103462.41;5050092;28;20249;-75
2022/01/23 12:12:29;;;;;;;21.53;10.73;;;;;;;8.59;92.80;103459.13;5050292;28;20220;-73
2022/01/23 12:18:22;;;;;;;18.83;9.90;;;;;;;8.82;92.68;103454.81;5049733;28;20217;-73
2022/01/23 12:20:50;;;;;;;18.53;9.90;;;;;;;8.78;92.15;103455.38;5050064;28;20703;-73
2022/01/23 12:23:16;;;;;;;17.97;9.90;;;;;;;8.67;93.21;103451.19;5050111;28;20582;-74
2022/01/23 12:25:50;;;;;;;16.00;10.30;;;;;;;8.63;93.52;103450.91;5066655;28;20189;-73
2022/01/23 12:28:28;;;;;;;20.70;10.07;;;;;;;8.62;92.21;103447.44;5069762;28;20291;-75
2022/01/23 12:31:16;;;;;;;14.60;9.27;;;;;;;8.70;92.79;103440.34;5070066;28;20169;-72
2022/01/23 12:33:42;;;;;;;15.37;8.93;;;;;;;8.66;92.71;103441.75;5060504;28;20667;-73
2022/01/23 12:36:40;;;;;;;15.87;8.43;;;;;;;8.66;92.52;103435.78;5055279;28;20271;-73
2022/01/23 12:39:08;;;;;;;12.20;7.93;;;;;;;8.77;91.93;103442.50;5057104;28;20948;-73
2022/01/23 12:41:46;;;;;;;15.13;7.80;;;;;;;8.74;91.83;103445.75;5069715;28;20185;-73
2022/01/23 12:44:24;;;;;;;13.40;6.60;;;;;;;8.62;91.13;103444.88;5068547;28;20181;-73
2022/01/23 12:46:50;;;;;;;14.23;7.00;;;;;;;8.54;92.06;103446.06;5068252;28;20716;-74
2022/01/23 12:49:36;;;;;;;14.07;9.27;;;;;;;8.62;91.97;103446.56;5069314;28;20209;-73
2022/01/23 12:52:08;;;;;;;9.10;4.87;;;;;;;8.60;91.41;103445.56;5069586;28;20185;-73
2022/01/23 12:54:59;;;;;;;14.37;7.87;;;;;;;8.85;91.98;103441.38;5068088;28;20228;-73
2022/01/23 12:57:36;;;;;;;11.40;4.70;;;;;;;8.80;90.28;103435.94;5069657;28;20174;-72
2022/01/23 13:00:07;;;;;;;9.57;5.07;;;;;;;8.63;90.27;103436.47;5068079;28;20296;-73
2022/01/23 13:02:40;;;;;;;11.20;3.93;;;;;;;8.59;90.51;103428.47;5060548;28;20657;-73
2022/01/23 13:05:06;;;;;;;12.47;4.40;;;;;;;8.59;90.44;103431.94;5068897;28;20267;-72
2022/01/23 13:07:42;;;;;;;9.17;3.63;;;;;;;8.55;90.69;103435.06;5067544;28;20311;-73
2022/01/23 13:10:28;;;;;;;9.20;3.20;;;;;;;8.52;90.29;103436.50;5068851;28;20184;-73
2022/01/23 13:13:16;;;;;;;10.10;3.80;;;;;;;8.46;89.78;103436.97;5049252;28;20198;-73
2022/01/23 13:15:58;;;;;;;9.07;3.80;;;;;;;8.46;89.85;103442.06;5049425;28;20205;-73
2022/01/23 13:31:50;;;;;;;9.77;3.90;;;;;;;8.48;91.46;103440.50;5072133;28;20181;-73
2022/01/23 13:34:21;;;;;;;9.67;3.23;;;;;;;8.55;91.21;103436.69;5053412;28;20185;-72
2022/01/23 13:37:02;;;;;;;8.80;3.33;;;;;;;8.49;90.76;103441.41;5051956;28;20189;-74
2022/01/23 13:39:33;;;;;;;7.70;3.43;;;;;;;8.44;91.48;103443.63;5053508;28;20205;-72
2022/01/23 13:42:00;;;;;;;5.67;2.83;;;;;;;8.41;91.50;103451.09;5055408;28;20197;-75
2022/01/23 13:53:28;;;;;;;11.23;3.77;;;;;;;8.33;91.24;103458.97;5053157;28;20184;-74
2022/01/23 13:58:39;;;;;;;4.87;3.07;;;;;;;8.30;91.29;103463.88;5052814;28;20202;-72
2022/01/23 14:01:35;;;;;;;5.17;2.77;;;;;;;8.27;91.20;103456.88;5053386;28;20221;-73
2022/01/23 14:04:01;;;;;;;5.97;2.30;;;;;;;8.26;90.84;103456.78;5051536;28;20190;-73
2022/01/23 14:06:26;;;;;;;3.80;2.10;;;;;;;8.24;90.21;103460.91;5068018;28;20220;-72
2022/01/23 14:09:08;;;;;;;5.10;1.90;;;;;;;8.28;90.36;103468.88;5052461;28;20209;-72
2022/01/23 14:11:34;;;;;;;5.13;1.80;;;;;;;8.24;90.39;103461.75;5052680;28;20210;-72
2022/01/23 14:14:20;;;;;;;4.53;2.00;;;;;;;8.24;90.15;103469.41;5052596;28;20188;-73
2022/01/23 14:16:47;;;;;;;6.37;2.10;;;;;;;8.25;90.06;103466.09;5052613;28;20205;-73
2022/01/23 14:19:13;;;;;;;6.23;2.47;;;;;;;8.24;90.32;103460.91;5051921;28;20721;-73
2022/01/23 14:21:41;;;;;;;4.00;1.73;;;;;;;8.25;89.72;103463.53;5055153;28;21564;-73
2022/01/23 14:24:06;;;;;;;7.30;2.17;;;;;;;8.26;89.64;103464.44;5071061;28;20189;-73
2022/01/23 14:26:32;;;;;;;3.90;1.90;;;;;;;8.27;89.47;103472.19;5072349;28;20181;-73
2022/01/23 14:29:06;;;;;;;5.17;1.90;;;;;;;8.23;89.74;103465.09;5070275;28;20207;-74
2022/01/23 14:31:37;;;;;;;4.83;1.90;;;;;;;8.25;90.31;103465.22;5072391;28;20212;-74
2022/01/23 14:34:05;;;;;;;6.97;1.73;;;;;;;8.22;90.25;103468.44;5070843;28;20220;-72
2022/01/23 14:36:35;;;;;;;6.53;2.27;;;;;;;8.20;90.60;103463.97;5072256;28;20288;-74